sensor_id;sensor_type;location;lat;lon;timestamp;P1;durP1;ratioP1;P2;durP2;ratioP2
37891;SDS011;45797;47.466;9.486;2023-03-11T00:03:07;1.80;;;1.15;;
37891;SDS011;45797;47.466;9.486;2023-03-11T00:08:12;1.67;;;0.80;;
37891;SDS011;45797;47.466;9.486;2023-03-11T00:13:15;1.67;;;1.00;;
37891;SDS011;45797;47.466;9.486;2023-03-11T00:18:23;3.88;;;1.17;;
37891;SDS011;45797;47.466;9.486;2023-03-11T00:23:40;2.42;;;1.15;;
37891;SDS011;45797;47.466;9.486;2023-03-11T00:28:42;2.67;;;1.23;;
37891;SDS011;45797;47.466;9.486;2023-03-11T00:33:52;1.67;;;0.80;;
37891;SDS011;45797;47.466;9.486;2023-03-11T00:38:54;1.85;;;0.90;;
37891;SDS011;45797;47.466;9.486;2023-03-11T00:48:58;3.15;;;1.00;;
37891;SDS011;45797;47.466;9.486;2023-03-11T00:54:07;1.77;;;0.90;;
37891;SDS011;45797;47.466;9.486;2023-03-11T00:59:14;3.30;;;1.13;;
37891;SDS011;45797;47.466;9.486;2023-03-11T01:04:17;3.17;;;1.42;;
37891;SDS011;45797;47.466;9.486;2023-03-11T01:09:20;4.75;;;1.33;;
37891;SDS011;45797;47.466;9.486;2023-03-11T01:14:22;2.33;;;1.02;;
37891;SDS011;45797;47.466;9.486;2023-03-11T01:19:31;3.03;;;1.25;;
37891;SDS011;45797;47.466;9.486;2023-03-11T01:24:32;2.60;;;1.23;;
37891;SDS011;45797;47.466;9.486;2023-03-11T01:29:33;2.30;;;1.20;;
37891;SDS011;45797;47.466;9.486;2023-03-11T01:34:38;1.33;;;0.80;;
37891;SDS011;45797;47.466;9.486;2023-03-11T01:39:39;2.70;;;1.23;;
37891;SDS011;45797;47.466;9.486;2023-03-11T01:44:53;2.08;;;1.00;;
37891;SDS011;45797;47.466;9.486;2023-03-11T01:55:10;4.60;;;1.20;;
37891;SDS011;45797;47.466;9.486;2023-03-11T02:00:12;2.00;;;1.20;;
37891;SDS011;45797;47.466;9.486;2023-03-11T02:05:19;2.15;;;1.08;;
37891;SDS011;45797;47.466;9.486;2023-03-11T02:10:31;2.53;;;1.13;;
37891;SDS011;45797;47.466;9.486;2023-03-11T02:15:32;2.10;;;1.00;;
37891;SDS011;45797;47.466;9.486;2023-03-11T02:26:04;2.05;;;1.02;;
37891;SDS011;45797;47.466;9.486;2023-03-11T02:31:19;2.55;;;1.23;;
37891;SDS011;45797;47.466;9.486;2023-03-11T02:46:52;2.75;;;1.50;;
37891;SDS011;45797;47.466;9.486;2023-03-11T02:51:53;2.80;;;1.25;;
37891;SDS011;45797;47.466;9.486;2023-03-11T02:56:54;3.10;;;1.40;;
37891;SDS011;45797;47.466;9.486;2023-03-11T03:01:55;7.35;;;1.50;;
37891;SDS011;45797;47.466;9.486;2023-03-11T03:06:56;2.63;;;1.08;;
37891;SDS011;45797;47.466;9.486;2023-03-11T03:11:56;2.58;;;1.40;;
37891;SDS011;45797;47.466;9.486;2023-03-11T03:16:57;2.50;;;1.40;;
37891;SDS011;45797;47.466;9.486;2023-03-11T03:21:58;3.42;;;1.38;;
37891;SDS011;45797;47.466;9.486;2023-03-11T03:26:58;2.63;;;1.27;;
37891;SDS011;45797;47.466;9.486;2023-03-11T03:31:59;2.40;;;1.10;;
37891;SDS011;45797;47.466;9.486;2023-03-11T03:47:13;3.22;;;1.38;;
37891;SDS011;45797;47.466;9.486;2023-03-11T03:52:20;2.55;;;1.38;;
37891;SDS011;45797;47.466;9.486;2023-03-11T03:57:21;2.28;;;1.05;;
37891;SDS011;45797;47.466;9.486;2023-03-11T04:02:22;2.53;;;1.33;;
37891;SDS011;45797;47.466;9.486;2023-03-11T04:07:25;2.42;;;1.23;;
37891;SDS011;45797;47.466;9.486;2023-03-11T04:12:26;2.05;;;0.98;;
37891;SDS011;45797;47.466;9.486;2023-03-11T04:17:28;1.70;;;0.80;;
37891;SDS011;45797;47.466;9.486;2023-03-11T04:22:30;2.47;;;1.30;;
37891;SDS011;45797;47.466;9.486;2023-03-11T04:27:43;2.92;;;1.35;;
37891;SDS011;45797;47.466;9.486;2023-03-11T04:32:48;2.13;;;1.48;;
37891;SDS011;45797;47.466;9.486;2023-03-11T04:38:01;2.83;;;1.33;;
37891;SDS011;45797;47.466;9.486;2023-03-11T04:53:35;2.97;;;1.60;;
37891;SDS011;45797;47.466;9.486;2023-03-11T04:58:37;2.80;;;1.55;;
37891;SDS011;45797;47.466;9.486;2023-03-11T05:03:39;2.97;;;1.40;;
37891;SDS011;45797;47.466;9.486;2023-03-11T05:08:45;2.67;;;1.30;;
37891;SDS011;45797;47.466;9.486;2023-03-11T05:13:53;3.00;;;1.48;;
37891;SDS011;45797;47.466;9.486;2023-03-11T05:18:54;2.75;;;1.17;;
37891;SDS011;45797;47.466;9.486;2023-03-11T05:24:03;2.25;;;1.00;;
37891;SDS011;45797;47.466;9.486;2023-03-11T05:34:06;2.17;;;1.27;;
37891;SDS011;45797;47.466;9.486;2023-03-11T05:39:09;2.53;;;1.30;;
37891;SDS011;45797;47.466;9.486;2023-03-11T05:44:19;3.23;;;1.00;;
37891;SDS011;45797;47.466;9.486;2023-03-11T05:49:20;3.17;;;1.10;;
37891;SDS011;45797;47.466;9.486;2023-03-11T05:54:29;2.43;;;1.40;;
37891;SDS011;45797;47.466;9.486;2023-03-11T05:59:32;2.90;;;1.20;;
37891;SDS011;45797;47.466;9.486;2023-03-11T06:04:36;2.80;;;1.40;;
37891;SDS011;45797;47.466;9.486;2023-03-11T06:09:48;3.80;;;1.50;;
37891;SDS011;45797;47.466;9.486;2023-03-11T06:14:52;3.13;;;1.20;;
37891;SDS011;45797;47.466;9.486;2023-03-11T06:20:06;2.57;;;1.40;;
37891;SDS011;45797;47.466;9.486;2023-03-11T06:25:09;2.80;;;1.33;;
37891;SDS011;45797;47.466;9.486;2023-03-11T06:30:13;2.33;;;1.10;;
37891;SDS011;45797;47.466;9.486;2023-03-11T06:35:22;3.23;;;1.63;;
37891;SDS011;45797;47.466;9.486;2023-03-11T06:40:38;2.43;;;1.20;;
37891;SDS011;45797;47.466;9.486;2023-03-11T06:45:39;2.33;;;1.10;;
37891;SDS011;45797;47.466;9.486;2023-03-11T06:50:39;3.10;;;1.43;;
37891;SDS011;45797;47.466;9.486;2023-03-11T06:55:39;2.20;;;1.07;;
37891;SDS011;45797;47.466;9.486;2023-03-11T07:00:53;4.40;;;1.30;;
37891;SDS011;45797;47.466;9.486;2023-03-11T07:05:55;2.07;;;1.10;;
37891;SDS011;45797;47.466;9.486;2023-03-11T07:11:09;4.90;;;1.43;;
37891;SDS011;45797;47.466;9.486;2023-03-11T07:21:20;2.57;;;1.30;;
37891;SDS011;45797;47.466;9.486;2023-03-11T07:26:30;2.93;;;1.67;;
37891;SDS011;45797;47.466;9.486;2023-03-11T07:31:38;2.63;;;1.23;;
37891;SDS011;45797;47.466;9.486;2023-03-11T07:36:41;3.73;;;1.43;;
37891;SDS011;45797;47.466;9.486;2023-03-11T07:41:43;4.50;;;1.20;;
37891;SDS011;45797;47.466;9.486;2023-03-11T07:46:45;4.87;;;1.50;;
37891;SDS011;45797;47.466;9.486;2023-03-11T07:56:50;3.30;;;1.50;;
37891;SDS011;45797;47.466;9.486;2023-03-11T08:01:51;2.53;;;1.40;;
37891;SDS011;45797;47.466;9.486;2023-03-11T08:07:02;3.10;;;1.17;;
37891;SDS011;45797;47.466;9.486;2023-03-11T08:12:05;3.08;;;1.33;;
37891;SDS011;45797;47.466;9.486;2023-03-11T08:17:20;2.50;;;1.25;;
37891;SDS011;45797;47.466;9.486;2023-03-11T08:22:22;2.67;;;1.38;;
37891;SDS011;45797;47.466;9.486;2023-03-11T08:27:23;2.67;;;1.15;;
37891;SDS011;45797;47.466;9.486;2023-03-11T08:32:24;3.63;;;1.70;;
37891;SDS011;45797;47.466;9.486;2023-03-11T08:37:30;4.03;;;1.27;;
37891;SDS011;45797;47.466;9.486;2023-03-11T08:42:31;2.28;;;1.17;;
37891;SDS011;45797;47.466;9.486;2023-03-11T08:47:36;3.30;;;1.38;;
37891;SDS011;45797;47.466;9.486;2023-03-11T08:52:37;2.75;;;0.90;;
37891;SDS011;45797;47.466;9.486;2023-03-11T08:57:38;1.83;;;0.90;;
37891;SDS011;45797;47.466;9.486;2023-03-11T09:07:43;3.13;;;1.10;;
37891;SDS011;45797;47.466;9.486;2023-03-11T09:17:48;2.10;;;1.23;;
37891;SDS011;45797;47.466;9.486;2023-03-11T09:22:50;2.63;;;1.00;;
37891;SDS011;45797;47.466;9.486;2023-03-11T09:33:00;2.00;;;0.90;;
37891;SDS011;45797;47.466;9.486;2023-03-11T09:38:01;2.03;;;0.93;;
37891;SDS011;45797;47.466;9.486;2023-03-11T09:53:55;2.67;;;1.23;;
37891;SDS011;45797;47.466;9.486;2023-03-11T10:04:35;2.10;;;0.93;;
37891;SDS011;45797;47.466;9.486;2023-03-11T10:09:50;1.92;;;1.02;;
37891;SDS011;45797;47.466;9.486;2023-03-11T10:30:56;2.03;;;1.00;;
37891;SDS011;45797;47.466;9.486;2023-03-11T10:41:59;2.90;;;1.27;;
37891;SDS011;45797;47.466;9.486;2023-03-11T10:47:16;2.00;;;0.80;;
37891;SDS011;45797;47.466;9.486;2023-03-11T10:52:21;2.88;;;1.05;;
37891;SDS011;45797;47.466;9.486;2023-03-11T10:57:55;1.48;;;0.90;;
37891;SDS011;45797;47.466;9.486;2023-03-11T11:03:03;1.67;;;0.88;;
37891;SDS011;45797;47.466;9.486;2023-03-11T11:08:08;2.88;;;1.00;;
37891;SDS011;45797;47.466;9.486;2023-03-11T11:13:17;1.55;;;0.80;;
37891;SDS011;45797;47.466;9.486;2023-03-11T11:18:43;2.17;;;1.00;;
37891;SDS011;45797;47.466;9.486;2023-03-11T11:23:49;2.78;;;0.93;;
37891;SDS011;45797;47.466;9.486;2023-03-11T11:29:13;2.60;;;1.00;;
37891;SDS011;45797;47.466;9.486;2023-03-11T11:34:30;3.15;;;1.02;;
37891;SDS011;45797;47.466;9.486;2023-03-11T11:39:42;2.00;;;1.10;;
37891;SDS011;45797;47.466;9.486;2023-03-11T11:44:56;2.25;;;1.00;;
37891;SDS011;45797;47.466;9.486;2023-03-11T11:50:22;1.63;;;0.70;;
37891;SDS011;45797;47.466;9.486;2023-03-11T11:55:31;2.10;;;1.05;;
37891;SDS011;45797;47.466;9.486;2023-03-11T12:05:59;6.22;;;1.10;;
37891;SDS011;45797;47.466;9.486;2023-03-11T12:11:12;2.10;;;1.10;;
37891;SDS011;45797;47.466;9.486;2023-03-11T12:21:56;2.63;;;1.23;;
37891;SDS011;45797;47.466;9.486;2023-03-11T12:43:23;2.58;;;1.27;;
37891;SDS011;45797;47.466;9.486;2023-03-11T12:48:33;2.47;;;1.08;;
37891;SDS011;45797;47.466;9.486;2023-03-11T12:53:46;2.78;;;1.30;;
37891;SDS011;45797;47.466;9.486;2023-03-11T13:15:39;4.18;;;1.27;;
37891;SDS011;45797;47.466;9.486;2023-03-11T13:36:42;3.70;;;0.95;;
37891;SDS011;45797;47.466;9.486;2023-03-11T13:41:53;2.70;;;1.20;;
37891;SDS011;45797;47.466;9.486;2023-03-11T13:47:16;3.88;;;1.00;;
37891;SDS011;45797;47.466;9.486;2023-03-11T13:52:29;2.15;;;1.05;;
37891;SDS011;45797;47.466;9.486;2023-03-11T13:57:33;2.13;;;1.30;;
37891;SDS011;45797;47.466;9.486;2023-03-11T14:02:36;2.20;;;1.00;;
37891;SDS011;45797;47.466;9.486;2023-03-11T14:07:43;2.83;;;1.20;;
37891;SDS011;45797;47.466;9.486;2023-03-11T14:12:44;1.88;;;0.95;;
37891;SDS011;45797;47.466;9.486;2023-03-11T14:17:51;3.95;;;1.10;;
37891;SDS011;45797;47.466;9.486;2023-03-11T14:22:54;2.47;;;1.10;;
37891;SDS011;45797;47.466;9.486;2023-03-11T14:28:00;2.63;;;1.10;;
37891;SDS011;45797;47.466;9.486;2023-03-11T14:33:04;1.55;;;0.77;;
37891;SDS011;45797;47.466;9.486;2023-03-11T14:38:28;2.70;;;1.08;;
37891;SDS011;45797;47.466;9.486;2023-03-11T14:48:45;2.53;;;1.10;;
37891;SDS011;45797;47.466;9.486;2023-03-11T14:53:58;2.67;;;1.25;;
37891;SDS011;45797;47.466;9.486;2023-03-11T14:59:09;3.42;;;1.10;;
37891;SDS011;45797;47.466;9.486;2023-03-11T15:04:35;2.33;;;1.13;;
37891;SDS011;45797;47.466;9.486;2023-03-11T15:14:50;2.63;;;1.10;;
37891;SDS011;45797;47.466;9.486;2023-03-11T15:19:51;3.55;;;1.20;;
37891;SDS011;45797;47.466;9.486;2023-03-11T15:24:56;2.63;;;1.20;;
37891;SDS011;45797;47.466;9.486;2023-03-11T15:30:01;3.42;;;1.40;;
37891;SDS011;45797;47.466;9.486;2023-03-11T15:35:44;3.60;;;1.13;;
37891;SDS011;45797;47.466;9.486;2023-03-11T15:46:01;2.53;;;1.25;;
37891;SDS011;45797;47.466;9.486;2023-03-11T15:56:21;2.80;;;1.10;;
37891;SDS011;45797;47.466;9.486;2023-03-11T16:01:30;3.15;;;1.30;;
37891;SDS011;45797;47.466;9.486;2023-03-11T16:06:33;4.40;;;1.60;;
37891;SDS011;45797;47.466;9.486;2023-03-11T16:11:33;5.00;;;1.45;;
37891;SDS011;45797;47.466;9.486;2023-03-11T16:21:41;2.58;;;1.35;;
37891;SDS011;45797;47.466;9.486;2023-03-11T16:26:47;2.85;;;1.33;;
37891;SDS011;45797;47.466;9.486;2023-03-11T16:31:58;3.60;;;1.48;;
37891;SDS011;45797;47.466;9.486;2023-03-11T16:37:00;2.65;;;1.33;;
37891;SDS011;45797;47.466;9.486;2023-03-11T16:42:08;6.93;;;1.60;;
37891;SDS011;45797;47.466;9.486;2023-03-11T16:47:08;2.40;;;1.17;;
37891;SDS011;45797;47.466;9.486;2023-03-11T16:52:17;2.70;;;1.20;;
37891;SDS011;45797;47.466;9.486;2023-03-11T16:57:19;4.88;;;2.10;;
37891;SDS011;45797;47.466;9.486;2023-03-11T17:02:20;5.05;;;2.00;;
37891;SDS011;45797;47.466;9.486;2023-03-11T17:07:20;3.67;;;1.73;;
37891;SDS011;45797;47.466;9.486;2023-03-11T17:12:24;6.55;;;2.58;;
37891;SDS011;45797;47.466;9.486;2023-03-11T17:17:30;4.35;;;1.40;;
37891;SDS011;45797;47.466;9.486;2023-03-11T17:22:32;3.10;;;1.48;;
37891;SDS011;45797;47.466;9.486;2023-03-11T17:27:39;3.78;;;1.50;;
37891;SDS011;45797;47.466;9.486;2023-03-11T17:32:40;3.15;;;1.40;;
37891;SDS011;45797;47.466;9.486;2023-03-11T17:37:46;3.20;;;1.90;;
37891;SDS011;45797;47.466;9.486;2023-03-11T17:47:51;3.45;;;1.40;;
37891;SDS011;45797;47.466;9.486;2023-03-11T17:52:52;3.45;;;1.60;;
37891;SDS011;45797;47.466;9.486;2023-03-11T17:57:57;2.83;;;1.55;;
37891;SDS011;45797;47.466;9.486;2023-03-11T18:03:00;3.65;;;1.58;;
37891;SDS011;45797;47.466;9.486;2023-03-11T18:08:02;2.17;;;1.23;;
37891;SDS011;45797;47.466;9.486;2023-03-11T18:23:28;3.97;;;1.83;;
37891;SDS011;45797;47.466;9.486;2023-03-11T18:28:33;4.93;;;2.10;;
37891;SDS011;45797;47.466;9.486;2023-03-11T18:33:36;4.85;;;2.10;;
37891;SDS011;45797;47.466;9.486;2023-03-11T18:38:38;4.45;;;1.98;;
37891;SDS011;45797;47.466;9.486;2023-03-11T18:43:54;7.38;;;2.00;;
37891;SDS011;45797;47.466;9.486;2023-03-11T18:49:09;6.88;;;2.55;;
37891;SDS011;45797;47.466;9.486;2023-03-11T18:54:10;4.30;;;1.95;;
37891;SDS011;45797;47.466;9.486;2023-03-11T18:59:13;3.65;;;1.40;;
37891;SDS011;45797;47.466;9.486;2023-03-11T19:04:15;2.95;;;1.27;;
37891;SDS011;45797;47.466;9.486;2023-03-11T19:09:16;1.90;;;1.00;;
37891;SDS011;45797;47.466;9.486;2023-03-11T19:14:18;1.65;;;0.73;;
37891;SDS011;45797;47.466;9.486;2023-03-11T19:19:25;1.60;;;0.70;;
37891;SDS011;45797;47.466;9.486;2023-03-11T19:24:26;2.17;;;1.15;;
37891;SDS011;45797;47.466;9.486;2023-03-11T19:29:37;2.33;;;1.00;;
37891;SDS011;45797;47.466;9.486;2023-03-11T19:34:37;1.90;;;1.00;;
37891;SDS011;45797;47.466;9.486;2023-03-11T19:39:38;1.83;;;0.93;;
37891;SDS011;45797;47.466;9.486;2023-03-11T19:44:49;2.13;;;0.90;;
37891;SDS011;45797;47.466;9.486;2023-03-11T19:49:50;1.30;;;0.70;;
37891;SDS011;45797;47.466;9.486;2023-03-11T19:54:51;1.63;;;0.75;;
37891;SDS011;45797;47.466;9.486;2023-03-11T19:59:53;1.40;;;0.90;;
37891;SDS011;45797;47.466;9.486;2023-03-11T20:10:04;1.80;;;0.70;;
37891;SDS011;45797;47.466;9.486;2023-03-11T20:15:05;1.92;;;0.90;;
37891;SDS011;45797;47.466;9.486;2023-03-11T20:25:09;0.98;;;0.57;;
37891;SDS011;45797;47.466;9.486;2023-03-11T20:30:19;1.10;;;0.60;;
37891;SDS011;45797;47.466;9.486;2023-03-11T20:40:40;1.52;;;0.70;;
37891;SDS011;45797;47.466;9.486;2023-03-11T20:45:40;1.10;;;0.60;;
37891;SDS011;45797;47.466;9.486;2023-03-11T20:50:49;1.52;;;0.75;;
37891;SDS011;45797;47.466;9.486;2023-03-11T20:55:52;1.92;;;0.73;;
37891;SDS011;45797;47.466;9.486;2023-03-11T21:00:52;1.45;;;0.77;;
37891;SDS011;45797;47.466;9.486;2023-03-11T21:05:55;0.80;;;0.50;;
37891;SDS011;45797;47.466;9.486;2023-03-11T21:11:01;2.97;;;0.50;;
37891;SDS011;45797;47.466;9.486;2023-03-11T21:16:04;0.63;;;0.40;;
37891;SDS011;45797;47.466;9.486;2023-03-11T21:21:05;0.82;;;0.45;;
37891;SDS011;45797;47.466;9.486;2023-03-11T21:31:15;0.95;;;0.50;;
37891;SDS011;45797;47.466;9.486;2023-03-11T21:36:18;0.60;;;0.40;;
37891;SDS011;45797;47.466;9.486;2023-03-11T21:41:19;1.63;;;0.70;;
37891;SDS011;45797;47.466;9.486;2023-03-11T21:46:27;0.47;;;0.40;;
37891;SDS011;45797;47.466;9.486;2023-03-11T21:56:49;1.33;;;0.47;;
37891;SDS011;45797;47.466;9.486;2023-03-11T22:07:16;0.60;;;0.50;;
37891;SDS011;45797;47.466;9.486;2023-03-11T22:12:18;1.08;;;0.60;;
37891;SDS011;45797;47.466;9.486;2023-03-11T22:17:20;0.85;;;0.60;;
37891;SDS011;45797;47.466;9.486;2023-03-11T22:22:20;0.50;;;0.45;;
37891;SDS011;45797;47.466;9.486;2023-03-11T22:27:21;1.13;;;0.70;;
37891;SDS011;45797;47.466;9.486;2023-03-11T22:37:27;1.27;;;0.60;;
37891;SDS011;45797;47.466;9.486;2023-03-11T22:42:35;1.10;;;0.60;;
37891;SDS011;45797;47.466;9.486;2023-03-11T22:47:43;1.92;;;0.75;;
37891;SDS011;45797;47.466;9.486;2023-03-11T22:52:43;1.15;;;0.65;;
37891;SDS011;45797;47.466;9.486;2023-03-11T22:58:01;0.93;;;0.50;;
37891;SDS011;45797;47.466;9.486;2023-03-11T23:03:02;0.63;;;0.50;;
37891;SDS011;45797;47.466;9.486;2023-03-11T23:08:14;0.80;;;0.50;;
37891;SDS011;45797;47.466;9.486;2023-03-11T23:18:20;1.02;;;0.60;;
37891;SDS011;45797;47.466;9.486;2023-03-11T23:23:21;4.28;;;0.80;;
37891;SDS011;45797;47.466;9.486;2023-03-11T23:33:32;1.20;;;0.70;;
37891;SDS011;45797;47.466;9.486;2023-03-11T23:38:33;1.85;;;0.80;;
37891;SDS011;45797;47.466;9.486;2023-03-11T23:48:44;1.60;;;0.77;;
37891;SDS011;45797;47.466;9.486;2023-03-11T23:53:44;1.70;;;0.85;;
37891;SDS011;45797;47.466;9.486;2023-03-11T23:58:45;2.03;;;0.80;;
